Time;durP1;ratioP1;P1;durP2;ratioP2;P2;SDS_P1;SDS_P2;PMS_P1;PMS_P2;Temp;Humidity;BMP_temperature;BMP_pressure;BME280_temperature;BME280_humidity;BME280_pressure;Samples;Min_cycle;Max_cycle;Signal;HPM_P1;HPM_P2
2021/12/20 00:00:20;;;;;;;;;;;1.10;99.90;;;;;;5078625;28;19934;-89
2021/12/20 00:02:48;;;;;;;;;;;1.10;99.90;;;;;;5096972;28;19948;-89
2021/12/20 00:05:14;;;;;;;;;;;1.10;99.90;;;;;;5078566;28;20359;-88
2021/12/20 00:07:40;;;;;;;;;;;1.20;99.90;;;;;;5078816;28;19931;-88
2021/12/20 00:10:06;;;;;;;;;;;1.20;99.90;;;;;;5078473;28;19908;-89
2021/12/20 00:12:32;;;;;;;;;;;1.20;99.90;;;;;;5078544;28;19956;-89
2021/12/20 00:14:57;;;;;;;;;;;1.20;99.90;;;;;;5078859;28;20015;-89
2021/12/20 00:17:23;;;;;;;;;;;1.20;99.90;;;;;;5078418;28;19908;-89
2021/12/20 00:19:48;;;;;;;;;;;1.20;99.90;;;;;;5078237;28;20435;-89
2021/12/20 00:22:14;;;;;;;;;;;1.20;99.90;;;;;;5078293;28;19908;-89
2021/12/20 00:24:39;;;;;;;;;;;1.20;99.90;;;;;;5096522;28;19908;-89
2021/12/20 00:27:07;;;;;;;;;;;1.20;99.90;;;;;;5077982;28;20003;-88
2021/12/20 00:29:34;;;;;;;;;;;1.20;99.90;;;;;;5078376;28;19908;-91
2021/12/20 00:31:59;;;;;;;;;;;1.20;99.90;;;;;;5078742;28;19979;-89
2021/12/20 00:34:25;;;;;;;;;;;1.20;99.90;;;;;;5079293;28;20382;-88
2021/12/20 00:36:57;;;;;;;;;;;1.20;99.90;;;;;;5078607;28;19908;-89
2021/12/20 00:42:07;;;;;;;;;;;1.30;99.90;;;;;;5076031;28;19916;-89
2021/12/20 00:44:32;;;;;;;;;;;1.20;99.90;;;;;;5075588;28;19909;-88
2021/12/20 00:46:58;;;;;;;;;;;1.20;99.90;;;;;;5075095;28;19990;-89
2021/12/20 00:49:23;;;;;;;;;;;1.20;99.90;;;;;;5058719;28;19909;-89
2021/12/20 00:51:49;;;;;;;;;;;1.20;99.90;;;;;;5077151;28;19908;-89
2021/12/20 00:54:14;;;;;;;;;;;1.20;99.90;;;;;;5058967;28;20363;-89
2021/12/20 00:56:40;;;;;;;;;;;1.20;99.90;;;;;;5058065;28;19913;-89
2021/12/20 00:59:05;;;;;;;;;;;1.20;99.90;;;;;;5077033;28;19913;-88
2021/12/20 01:01:31;;;;;;;;;;;1.20;99.90;;;;;;5076825;28;20469;-89
2021/12/20 01:03:56;;;;;;;;;;;1.20;99.90;;;;;;5058708;28;19909;-89
2021/12/20 01:06:22;;;;;;;;;;;1.20;99.90;;;;;;5058618;28;19913;-90
2021/12/20 01:08:49;;;;;;;;;;;1.20;99.90;;;;;;5076078;28;20353;-89
2021/12/20 01:11:20;;;;;;;;;;;1.20;99.90;;;;;;5058571;28;19908;-89
2021/12/20 01:13:46;;;;;;;;;;;1.20;99.90;;;;;;5057960;28;20386;-89
2021/12/20 01:16:13;;;;;;;;;;;1.20;99.90;;;;;;5076063;28;19912;-88
2021/12/20 01:18:39;;;;;;;;;;;1.30;99.90;;;;;;5058009;28;19912;-89
2021/12/20 01:21:04;;;;;;;;;;;1.30;99.90;;;;;;5059275;28;20306;-89
2021/12/20 01:23:30;;;;;;;;;;;1.30;99.90;;;;;;5059139;28;19909;-89
2021/12/20 01:25:55;;;;;;;;;;;1.30;99.90;;;;;;5058338;28;19909;-89
2021/12/20 01:28:21;;;;;;;;;;;1.30;99.90;;;;;;5075017;28;20417;-89
2021/12/20 01:30:46;;;;;;;;;;;1.30;99.90;;;;;;5075159;28;19998;-89
2021/12/20 01:33:13;;;;;;;;;;;1.30;99.90;;;;;;5076228;28;19908;-89
2021/12/20 01:35:39;;;;;;;;;;;1.30;99.90;;;;;;5063553;28;20443;-89
2021/12/20 01:38:04;;;;;;;;;;;1.30;99.90;;;;;;5072741;28;19908;-89
2021/12/20 01:40:30;;;;;;;;;;;1.30;99.90;;;;;;5080744;28;19923;-89
2021/12/20 01:42:57;;;;;;;;;;;1.30;99.90;;;;;;5057778;28;19908;-89
2021/12/20 01:45:24;;;;;;;;;;;1.30;99.90;;;;;;5057850;28;19915;-89
2021/12/20 01:47:59;;;;;;;;;;;1.30;99.90;;;;;;5076588;28;19908;-89
2021/12/20 01:50:40;;;;;;;;;;;1.30;99.90;;;;;;5057329;28;19909;-88
2021/12/20 01:53:06;;;;;;;;;;;1.30;99.90;;;;;;5057388;28;19909;-89
2021/12/20 01:55:32;;;;;;;;;;;1.30;99.90;;;;;;5057149;28;20012;-89
2021/12/20 01:57:57;;;;;;;;;;;1.30;99.90;;;;;;5057337;28;20451;-88
2021/12/20 02:00:25;;;;;;;;;;;1.30;99.90;;;;;;5057501;28;19909;-89
2021/12/20 02:02:57;;;;;;;;;;;1.40;99.90;;;;;;5075753;28;19909;-89
2021/12/20 02:05:33;;;;;;;;;;;1.40;99.90;;;;;;5057919;28;19960;-89
2021/12/20 02:08:03;;;;;;;;;;;1.40;99.90;;;;;;5058051;28;19945;-89
2021/12/20 02:10:28;;;;;;;;;;;1.30;99.90;;;;;;5075948;28;19960;-90
2021/12/20 02:12:54;;;;;;;;;;;1.30;99.90;;;;;;5057608;28;19916;-89
2021/12/20 02:15:19;;;;;;;;;;;1.30;99.90;;;;;;5057729;28;19923;-88
2021/12/20 02:17:45;;;;;;;;;;;1.30;99.90;;;;;;5074366;28;19908;-89
2021/12/20 02:20:23;;;;;;;;;;;1.20;99.90;;;;;;5058039;28;19972;-88
2021/12/20 02:22:48;;;;;;;;;;;1.20;99.90;;;;;;5058095;28;20473;-89
2021/12/20 02:25:14;;;;;;;;;;;1.30;99.90;;;;;;5057873;28;19909;-89
2021/12/20 02:27:39;;;;;;;;;;;1.20;99.90;;;;;;5059333;28;20011;-89
2021/12/20 02:30:12;;;;;;;;;;;1.30;99.90;;;;;;5075362;28;19943;-89
2021/12/20 02:38:26;;;;;;;;;;;1.10;99.90;;;;;;5075940;28;20290;-89
2021/12/20 02:41:00;;;;;;;;;;;1.10;99.90;;;;;;5056883;28;19925;-88
2021/12/20 02:43:28;;;;;;;;;;;1.10;99.90;;;;;;5056975;28;20363;-89
2021/12/20 02:45:57;;;;;;;;;;;1.10;99.90;;;;;;5057156;28;19995;-89
2021/12/20 02:48:23;;;;;;;;;;;1.10;99.90;;;;;;5057263;28;19908;-89
2021/12/20 02:50:48;;;;;;;;;;;1.10;99.90;;;;;;5057710;28;20003;-89
2021/12/20 02:53:13;;;;;;;;;;;1.10;99.90;;;;;;5058006;28;19962;-88
2021/12/20 02:55:39;;;;;;;;;;;1.10;99.90;;;;;;5073703;28;19913;-89
2021/12/20 02:58:04;;;;;;;;;;;1.10;99.90;;;;;;5057355;28;19909;-88
2021/12/20 03:00:30;;;;;;;;;;;1.10;99.90;;;;;;5074372;28;20477;-88
2021/12/20 03:02:55;;;;;;;;;;;1.00;99.90;;;;;;5075210;28;19950;-88
2021/12/20 03:05:21;;;;;;;;;;;1.00;99.90;;;;;;5057596;28;20260;-88
2021/12/20 03:07:51;;;;;;;;;;;1.10;99.90;;;;;;5057886;28;19909;-89
2021/12/20 03:10:17;;;;;;;;;;;1.10;99.90;;;;;;5058028;28;20015;-88
2021/12/20 03:12:43;;;;;;;;;;;1.10;99.90;;;;;;5057952;28;20003;-88
2021/12/20 03:15:14;;;;;;;;;;;1.10;99.90;;;;;;5057653;28;19951;-89
2021/12/20 03:17:39;;;;;;;;;;;1.00;99.90;;;;;;5057336;28;19948;-88
2021/12/20 03:20:06;;;;;;;;;;;0.90;99.90;;;;;;5056635;28;19915;-89
2021/12/20 03:22:31;;;;;;;;;;;1.00;99.90;;;;;;5056251;28;19909;-88
2021/12/20 03:24:57;;;;;;;;;;;0.90;99.90;;;;;;5056496;28;19909;-88
2021/12/20 03:27:22;;;;;;;;;;;0.90;99.90;;;;;;5074460;28;19908;-88
2021/12/20 03:29:48;;;;;;;;;;;0.90;99.90;;;;;;5056317;28;20005;-88
2021/12/20 03:32:13;;;;;;;;;;;0.80;99.90;;;;;;5074320;28;20286;-88
2021/12/20 03:34:39;;;;;;;;;;;0.80;99.90;;;;;;5056083;28;19909;-88
2021/12/20 03:37:04;;;;;;;;;;;0.90;99.90;;;;;;5056492;28;19908;-89
2021/12/20 03:39:30;;;;;;;;;;;0.90;99.90;;;;;;5055316;28;19917;-89
2021/12/20 03:41:55;;;;;;;;;;;0.90;99.90;;;;;;5070053;28;19908;-88
2021/12/20 03:44:21;;;;;;;;;;;0.90;99.90;;;;;;5079820;28;19908;-88
2021/12/20 03:46:47;;;;;;;;;;;0.90;99.90;;;;;;5098754;28;19909;-88
2021/12/20 03:49:12;;;;;;;;;;;0.90;99.90;;;;;;5080334;28;19908;-88
2021/12/20 03:51:38;;;;;;;;;;;0.90;99.90;;;;;;5080330;28;19934;-88
2021/12/20 03:54:04;;;;;;;;;;;0.90;99.90;;;;;;5080676;28;19908;-88
2021/12/20 03:56:29;;;;;;;;;;;0.90;99.90;;;;;;5080741;28;20373;-89
2021/12/20 03:58:55;;;;;;;;;;;1.00;99.90;;;;;;5098340;28;19947;-88
2021/12/20 04:01:20;;;;;;;;;;;1.00;99.90;;;;;;5097640;28;20460;-88
2021/12/20 04:03:46;;;;;;;;;;;0.90;99.90;;;;;;5097812;28;19909;-88
2021/12/20 04:06:12;;;;;;;;;;;0.90;99.90;;;;;;5097411;28;19915;-88
2021/12/20 04:08:38;;;;;;;;;;;0.80;99.90;;;;;;5079348;28;19965;-88
2021/12/20 04:11:04;;;;;;;;;;;0.90;99.90;;;;;;5079048;28;19915;-90
2021/12/20 04:13:30;;;;;;;;;;;0.90;99.90;;;;;;5079190;28;19908;-89
2021/12/20 04:15:56;;;;;;;;;;;0.80;99.90;;;;;;5078782;28;19912;-88
2021/12/20 04:18:22;;;;;;;;;;;0.80;99.90;;;;;;5078598;28;19957;-88
2021/12/20 04:20:47;;;;;;;;;;;0.70;99.90;;;;;;5078912;28;19952;-88
2021/12/20 04:23:13;;;;;;;;;;;0.70;99.90;;;;;;5078655;28;19916;-88
2021/12/20 04:25:39;;;;;;;;;;;0.70;99.90;;;;;;5077995;28;19908;-88
2021/12/20 04:28:04;;;;;;;;;;;0.80;99.90;;;;;;5096241;28;19915;-88
2021/12/20 04:30:31;;;;;;;;;;;0.90;99.90;;;;;;5078262;28;20003;-88
2021/12/20 04:32:57;;;;;;;;;;;0.90;99.90;;;;;;5078572;28;19957;-88
2021/12/20 04:35:23;;;;;;;;;;;1.00;99.90;;;;;;5078289;28;19919;-88
2021/12/20 04:37:50;;;;;;;;;;;1.00;99.90;;;;;;5078497;28;19908;-88
2021/12/20 04:40:19;;;;;;;;;;;1.00;99.90;;;;;;5095778;28;19923;-87
2021/12/20 04:42:49;;;;;;;;;;;0.90;99.90;;;;;;5095589;28;20286;-88
2021/12/20 04:45:15;;;;;;;;;;;0.90;99.90;;;;;;5077432;28;19915;-87
2021/12/20 04:47:40;;;;;;;;;;;0.90;99.90;;;;;;5077685;28;19909;-88
2021/12/20 04:50:07;;;;;;;;;;;0.80;99.90;;;;;;5077399;28;19908;-88
2021/12/20 04:52:32;;;;;;;;;;;0.80;99.90;;;;;;5076542;28;19954;-88
2021/12/20 04:54:58;;;;;;;;;;;0.80;99.90;;;;;;5095559;28;19920;-88
2021/12/20 04:57:23;;;;;;;;;;;0.80;99.90;;;;;;5077661;28;20007;-88
2021/12/20 04:59:49;;;;;;;;;;;0.80;99.90;;;;;;5095671;28;19908;-88
2021/12/20 05:02:14;;;;;;;;;;;1.00;99.90;;;;;;5077725;28;19914;-88
2021/12/20 05:04:42;;;;;;;;;;;1.00;99.90;;;;;;5077890;28;19998;-88
2021/12/20 05:07:07;;;;;;;;;;;1.00;99.90;;;;;;5077361;28;20294;-88
2021/12/20 05:09:37;;;;;;;;;;;1.00;99.90;;;;;;5095534;28;19915;-88
2021/12/20 05:12:11;;;;;;;;;;;1.00;99.90;;;;;;5095505;28;19908;-88
2021/12/20 05:14:38;;;;;;;;;;;1.00;99.90;;;;;;5078128;28;20281;-88
2021/12/20 05:17:03;;;;;;;;;;;0.90;99.90;;;;;;5095581;28;20355;-88
2021/12/20 05:19:29;;;;;;;;;;;0.90;99.90;;;;;;5077277;28;19954;-88
2021/12/20 05:21:56;;;;;;;;;;;0.90;99.90;;;;;;5077306;28;19994;-88
2021/12/20 05:24:21;;;;;;;;;;;0.90;99.90;;;;;;5077124;28;19918;-88
2021/12/20 05:26:47;;;;;;;;;;;0.90;99.90;;;;;;5077299;28;19908;-88
2021/12/20 05:29:12;;;;;;;;;;;0.90;99.90;;;;;;5094813;28;19908;-89
2021/12/20 05:31:38;;;;;;;;;;;0.80;99.90;;;;;;5077175;28;19916;-88
2021/12/20 05:34:04;;;;;;;;;;;0.90;99.90;;;;;;5076412;28;19908;-88
2021/12/20 05:36:29;;;;;;;;;;;0.90;99.90;;;;;;5076241;28;20366;-88
2021/12/20 05:38:54;;;;;;;;;;;1.00;99.90;;;;;;5077870;28;19908;-89
2021/12/20 05:41:20;;;;;;;;;;;1.00;99.90;;;;;;5095155;28;20065;-88
2021/12/20 05:43:46;;;;;;;;;;;1.00;99.90;;;;;;5077013;28;19915;-88
2021/12/20 05:46:11;;;;;;;;;;;1.10;99.90;;;;;;5076885;28;19969;-88
2021/12/20 05:48:37;;;;;;;;;;;1.10;99.90;;;;;;5077610;28;19947;-89
2021/12/20 05:51:02;;;;;;;;;;;1.00;99.90;;;;;;5077397;28;19998;-88
2021/12/20 05:53:28;;;;;;;;;;;1.10;99.90;;;;;;5077269;28;19912;-88
2021/12/20 05:55:53;;;;;;;;;;;1.00;99.90;;;;;;5095150;28;19976;-88
2021/12/20 05:58:19;;;;;;;;;;;1.00;99.90;;;;;;5094967;28;19908;-88
2021/12/20 06:00:44;;;;;;;;;;;1.00;99.90;;;;;;5076689;28;19909;-88
2021/12/20 06:03:10;;;;;;;;;;;1.00;99.90;;;;;;5076661;28;19909;-88
2021/12/20 06:05:38;;;;;;;;;;;0.90;99.90;;;;;;5076953;28;19947;-88
2021/12/20 06:08:04;;;;;;;;;;;0.90;99.90;;;;;;5077343;28;19908;-88
2021/12/20 06:10:29;;;;;;;;;;;0.90;99.90;;;;;;5095612;28;19914;-88
2021/12/20 06:12:55;;;;;;;;;;;1.00;99.90;;;;;;5077131;28;20363;-89
2021/12/20 06:15:20;;;;;;;;;;;1.00;99.90;;;;;;5077447;28;19919;-88
2021/12/20 06:17:46;;;;;;;;;;;1.10;99.90;;;;;;5077536;28;20298;-89
2021/12/20 06:20:12;;;;;;;;;;;1.10;99.90;;;;;;5077039;28;20385;-88
2021/12/20 06:22:37;;;;;;;;;;;1.10;99.90;;;;;;5077582;28;19908;-88
2021/12/20 06:25:04;;;;;;;;;;;1.10;99.90;;;;;;5077837;28;19931;-88
2021/12/20 06:27:29;;;;;;;;;;;1.10;99.90;;;;;;5079378;28;20333;-88
2021/12/20 06:29:55;;;;;;;;;;;1.00;99.90;;;;;;5082277;28;19908;-88
2021/12/20 06:32:21;;;;;;;;;;;1.00;99.90;;;;;;5091007;28;19900;-92
2021/12/20 06:34:46;;;;;;;;;;;1.00;99.90;;;;;;5083479;28;19908;-88
2021/12/20 06:37:12;;;;;;;;;;;0.90;99.90;;;;;;5075671;28;19908;-88
2021/12/20 06:39:38;;;;;;;;;;;0.90;99.90;;;;;;5075231;28;19920;-88
2021/12/20 06:42:04;;;;;;;;;;;0.90;99.90;;;;;;5075308;28;20431;-88
2021/12/20 06:44:29;;;;;;;;;;;0.90;99.90;;;;;;5075621;28;19914;-88
2021/12/20 06:46:55;;;;;;;;;;;0.90;99.90;;;;;;5075641;28;20386;-88
2021/12/20 06:49:21;;;;;;;;;;;1.00;99.90;;;;;;5075564;28;19976;-89
2021/12/20 06:51:47;;;;;;;;;;;1.00;99.90;;;;;;5076172;28;19915;-88
2021/12/20 06:54:14;;;;;;;;;;;1.10;99.90;;;;;;5075450;28;19912;-88
2021/12/20 06:56:39;;;;;;;;;;;1.00;99.90;;;;;;5075365;28;19919;-88
2021/12/20 06:59:05;;;;;;;;;;;1.10;99.90;;;;;;5075479;28;19908;-89
2021/12/20 07:01:31;;;;;;;;;;;1.10;99.90;;;;;;5076055;28;20282;-88
2021/12/20 07:03:56;;;;;;;;;;;1.10;99.90;;;;;;5075881;28;19908;-88
2021/12/20 07:06:22;;;;;;;;;;;1.10;99.90;;;;;;5075672;28;19908;-88
2021/12/20 07:08:48;;;;;;;;;;;1.00;99.90;;;;;;5076336;28;20354;-88
2021/12/20 07:11:14;;;;;;;;;;;1.00;99.90;;;;;;5077339;28;19908;-88
2021/12/20 07:13:40;;;;;;;;;;;1.00;99.90;;;;;;5076016;28;19908;-89
2021/12/20 07:16:06;;;;;;;;;;;1.00;99.90;;;;;;5077709;28;19912;-88
2021/12/20 07:18:32;;;;;;;;;;;0.90;99.90;;;;;;5080033;28;19908;-88
2021/12/20 07:21:05;;;;;;;;;;;0.80;99.90;;;;;;5080076;28;20003;-88
2021/12/20 07:23:35;;;;;;;;;;;0.80;99.90;;;;;;5080299;28;20259;-88
2021/12/20 07:26:02;;;;;;;;;;;0.70;99.90;;;;;;5079959;28;19957;-88
2021/12/20 07:28:28;;;;;;;;;;;0.60;99.90;;;;;;5080251;28;19908;-88
2021/12/20 07:30:53;;;;;;;;;;;0.70;99.90;;;;;;5079635;28;20003;-88
2021/12/20 07:33:19;;;;;;;;;;;0.70;99.90;;;;;;5097881;28;19958;-88
2021/12/20 07:35:45;;;;;;;;;;;0.70;99.90;;;;;;5079810;28;19912;-88
2021/12/20 07:38:13;;;;;;;;;;;0.80;99.90;;;;;;5080401;28;19912;-88
2021/12/20 07:40:41;;;;;;;;;;;0.90;99.90;;;;;;5080433;28;19927;-89
2021/12/20 07:43:07;;;;;;;;;;;1.00;99.90;;;;;;5080394;28;19947;-88
2021/12/20 07:45:33;;;;;;;;;;;1.00;99.90;;;;;;5080377;28;19930;-89
2021/12/20 07:47:58;;;;;;;;;;;1.00;99.90;;;;;;5098374;28;20417;-88
2021/12/20 07:50:24;;;;;;;;;;;1.00;99.90;;;;;;5098773;28;19965;-88
2021/12/20 07:52:49;;;;;;;;;;;1.10;99.90;;;;;;5098411;28;19962;-88
2021/12/20 07:55:15;;;;;;;;;;;1.10;99.90;;;;;;5080343;28;19966;-88
2021/12/20 07:57:41;;;;;;;;;;;1.10;99.90;;;;;;5080307;28;19908;-89
2021/12/20 08:00:07;;;;;;;;;;;1.10;99.90;;;;;;5080273;28;19948;-88
2021/12/20 08:02:32;;;;;;;;;;;1.20;99.90;;;;;;5080175;28;20027;-89
2021/12/20 08:04:58;;;;;;;;;;;1.30;99.90;;;;;;5080484;28;19920;-88
2021/12/20 08:07:23;;;;;;;;;;;1.30;99.90;;;;;;5097949;28;19962;-88
2021/12/20 08:09:50;;;;;;;;;;;1.20;99.90;;;;;;5080010;28;19908;-88
2021/12/20 08:12:17;;;;;;;;;;;1.20;99.90;;;;;;5079509;28;19958;-88
2021/12/20 08:14:42;;;;;;;;;;;1.20;99.90;;;;;;5079415;28;19908;-88
2021/12/20 08:17:08;;;;;;;;;;;1.30;99.90;;;;;;5079872;28;20458;-88
2021/12/20 08:19:39;;;;;;;;;;;1.40;99.90;;;;;;5080057;28;20255;-88
2021/12/20 08:22:16;;;;;;;;;;;1.40;99.90;;;;;;5080026;28;19908;-88
2021/12/20 08:24:42;;;;;;;;;;;1.50;99.90;;;;;;5098506;28;19916;-88
2021/12/20 08:27:08;;;;;;;;;;;1.50;99.90;;;;;;5079218;28;20003;-88
2021/12/20 08:29:38;;;;;;;;;;;1.60;99.90;;;;;;5079467;28;19989;-89
2021/12/20 08:32:04;;;;;;;;;;;1.60;99.90;;;;;;5079760;28;20007;-88
2021/12/20 08:34:30;;;;;;;;;;;1.60;99.90;;;;;;5079596;28;19948;-88
2021/12/20 08:36:56;;;;;;;;;;;1.70;99.90;;;;;;5079673;28;20318;-89
2021/12/20 08:39:22;;;;;;;;;;;1.80;99.90;;;;;;5079201;28;19973;-89
2021/12/20 08:42:04;;;;;;;;;;;1.80;99.90;;;;;;5079540;28;19908;-90
2021/12/20 08:44:31;;;;;;;;;;;1.90;99.90;;;;;;5078860;28;19958;-88
2021/12/20 08:46:56;;;;;;;;;;;1.90;99.90;;;;;;5096937;28;19908;-88
2021/12/20 08:49:25;;;;;;;;;;;1.90;99.90;;;;;;5079416;28;19914;-88
2021/12/20 08:51:52;;;;;;;;;;;1.90;99.90;;;;;;5078675;28;19908;-88
2021/12/20 08:54:18;;;;;;;;;;;1.90;99.90;;;;;;5079300;28;19912;-88
2021/12/20 08:56:43;;;;;;;;;;;1.80;99.90;;;;;;5091731;28;19913;-89
2021/12/20 08:59:09;;;;;;;;;;;1.80;99.90;;;;;;5100215;28;20413;-89
2021/12/20 09:01:38;;;;;;;;;;;1.80;99.90;;;;;;5118709;28;19914;-88
2021/12/20 09:04:05;;;;;;;;;;;1.90;99.90;;;;;;5099135;28;19908;-88
2021/12/20 09:06:32;;;;;;;;;;;2.00;99.90;;;;;;5117317;28;19908;-88
2021/12/20 09:08:58;;;;;;;;;;;2.10;99.90;;;;;;5098890;28;19947;-88
2021/12/20 09:11:25;;;;;;;;;;;2.30;99.90;;;;;;5083975;28;19914;-89
2021/12/20 09:13:51;;;;;;;;;;;2.50;99.90;;;;;;5080914;28;19915;-89
2021/12/20 09:16:17;;;;;;;;;;;2.50;99.90;;;;;;5098920;28;19912;-89
2021/12/20 09:18:43;;;;;;;;;;;2.50;99.90;;;;;;5081478;28;19958;-91
2021/12/20 09:21:10;;;;;;;;;;;2.60;99.90;;;;;;5084050;28;19947;-90
2021/12/20 09:23:36;;;;;;;;;;;2.70;99.90;;;;;;5084379;28;19998;-89
2021/12/20 09:26:02;;;;;;;;;;;2.70;99.90;;;;;;5084030;28;19908;-88
2021/12/20 09:28:28;;;;;;;;;;;2.70;99.90;;;;;;5088196;28;19915;-90
2021/12/20 09:30:55;;;;;;;;;;;2.70;99.90;;;;;;5101388;28;19953;-89
2021/12/20 09:33:21;;;;;;;;;;;2.70;99.90;;;;;;5078526;28;19908;-88
2021/12/20 09:35:47;;;;;;;;;;;2.70;99.90;;;;;;5076903;28;19991;-88
2021/12/20 09:38:16;;;;;;;;;;;2.70;99.90;;;;;;5085498;28;19908;-88
2021/12/20 09:40:51;;;;;;;;;;;2.60;99.90;;;;;;5086413;28;19943;-89
2021/12/20 09:43:16;;;;;;;;;;;2.60;99.90;;;;;;5077157;28;19915;-89
2021/12/20 09:45:44;;;;;;;;;;;2.70;99.90;;;;;;5076574;28;19908;-88
2021/12/20 09:48:10;;;;;;;;;;;2.70;99.90;;;;;;5076540;28;19908;-89
2021/12/20 09:50:35;;;;;;;;;;;2.90;99.90;;;;;;5094630;28;19908;-88
2021/12/20 09:53:04;;;;;;;;;;;2.90;99.90;;;;;;5094706;28;19914;-89
2021/12/20 09:55:30;;;;;;;;;;;2.80;99.90;;;;;;5076138;28;19912;-89
2021/12/20 09:57:56;;;;;;;;;;;2.80;99.90;;;;;;5076184;28;19914;-89
2021/12/20 10:00:21;;;;;;;;;;;2.80;99.90;;;;;;5076459;28;19916;-88
2021/12/20 10:02:48;;;;;;;;;;;2.70;99.90;;;;;;5076123;28;19907;-88
2021/12/20 10:05:14;;;;;;;;;;;2.80;99.90;;;;;;5075914;28;20018;-87
2021/12/20 10:07:41;;;;;;;;;;;2.80;99.90;;;;;;5075691;28;19947;-86
2021/12/20 10:10:08;;;;;;;;;;;2.70;99.90;;;;;;5075642;28;19908;-86
2021/12/20 10:12:33;;;;;;;;;;;2.70;99.90;;;;;;5075637;28;19915;-86
2021/12/20 10:14:59;;;;;;;;;;;2.70;99.90;;;;;;5075992;28;19916;-89
2021/12/20 10:17:34;;;;;;;;;;;2.80;99.90;;;;;;5076179;28;19908;-89
2021/12/20 10:20:13;;;;;;;;;;;3.10;99.90;;;;;;5075885;28;20277;-89
2021/12/20 10:22:38;;;;;;;;;;;3.10;99.90;;;;;;5094368;28;19918;-89
2021/12/20 10:25:18;;;;;;;;;;;3.20;99.90;;;;;;5075887;28;20352;-89
2021/12/20 10:27:44;;;;;;;;;;;3.30;99.90;;;;;;5094075;28;19995;-90
2021/12/20 10:30:29;;;;;;;;;;;3.40;99.90;;;;;;5076326;28;19966;-89
2021/12/20 10:32:56;;;;;;;;;;;3.40;99.90;;;;;;5081853;28;19916;-93
2021/12/20 10:35:24;;;;;;;;;;;3.40;99.90;;;;;;5084647;28;19962;-89
2021/12/20 10:37:50;;;;;;;;;;;3.50;99.90;;;;;;5076485;28;19946;-89
2021/12/20 10:40:16;;;;;;;;;;;3.50;99.90;;;;;;5093835;28;20294;-90
2021/12/20 10:42:41;;;;;;;;;;;3.80;99.90;;;;;;5076917;28;19908;-89
2021/12/20 10:45:13;;;;;;;;;;;3.90;99.90;;;;;;5077113;28;19961;-89
2021/12/20 10:47:39;;;;;;;;;;;4.00;99.90;;;;;;5076346;28;20370;-87
2021/12/20 10:50:20;;;;;;;;;;;4.20;99.90;;;;;;5093064;28;19915;-86
2021/12/20 10:52:45;;;;;;;;;;;4.40;99.90;;;;;;5093606;28;19908;-86
2021/12/20 10:55:11;;;;;;;;;;;4.50;99.90;;;;;;5093040;28;19970;-86
2021/12/20 10:57:37;;;;;;;;;;;4.20;99.90;;;;;;5093414;28;20321;-87
2021/12/20 11:00:13;;;;;;;;;;;4.20;99.90;;;;;;5075069;28;19908;-87
2021/12/20 11:03:17;;;;;;;;;;;4.00;99.90;;;;;;5093066;28;20326;-87
2021/12/20 11:06:01;;;;;;;;;;;4.20;99.90;;;;;;5072783;28;19928;-87
2021/12/20 11:11:11;;;;;;;;;;;4.40;99.90;;;;;;5093490;28;19915;-87
2021/12/20 11:13:37;;;;;;;;;;;4.20;99.90;;;;;;5074869;28;19908;-88
2021/12/20 11:16:22;;;;;;;;;;;3.90;99.90;;;;;;5074760;28;19961;-88
2021/12/20 11:18:47;;;;;;;;;;;3.80;99.90;;;;;;5075004;28;19939;-87
2021/12/20 11:21:14;;;;;;;;;;;3.70;99.90;;;;;;5075112;28;19915;-88
2021/12/20 11:23:39;;;;;;;;;;;3.50;99.90;;;;;;5093031;28;20289;-87
2021/12/20 11:26:05;;;;;;;;;;;3.40;99.90;;;;;;5075764;28;19916;-87
2021/12/20 11:28:31;;;;;;;;;;;3.20;99.90;;;;;;5075573;28;19908;-88
2021/12/20 11:30:57;;;;;;;;;;;3.00;99.90;;;;;;5075110;28;19908;-87
2021/12/20 11:33:22;;;;;;;;;;;3.00;99.90;;;;;;5074981;28;19908;-87
2021/12/20 11:35:48;;;;;;;;;;;3.10;99.90;;;;;;5076469;28;19986;-88
2021/12/20 11:38:13;;;;;;;;;;;3.10;99.90;;;;;;5082343;28;19962;-88
2021/12/20 11:40:39;;;;;;;;;;;3.10;99.90;;;;;;5074794;28;19916;-88
2021/12/20 11:43:04;;;;;;;;;;;3.00;99.90;;;;;;5074913;28;19916;-88
2021/12/20 11:45:30;;;;;;;;;;;2.90;99.90;;;;;;5092548;28;19909;-87
2021/12/20 11:48:06;;;;;;;;;;;2.90;99.90;;;;;;5074612;28;19947;-87
2021/12/20 11:50:34;;;;;;;;;;;2.80;99.90;;;;;;5074654;28;19995;-88
2021/12/20 11:53:06;;;;;;;;;;;2.90;99.90;;;;;;5093037;28;19908;-88
2021/12/20 11:55:33;;;;;;;;;;;2.90;99.90;;;;;;5074632;28;19912;-88
2021/12/20 11:58:00;;;;;;;;;;;3.10;99.90;;;;;;5092968;28;20507;-88
2021/12/20 12:00:33;;;;;;;;;;;3.20;99.90;;;;;;5074937;28;20004;-88
2021/12/20 12:03:01;;;;;;;;;;;3.40;99.90;;;;;;5077754;28;19912;-88
2021/12/20 12:05:28;;;;;;;;;;;3.70;99.90;;;;;;5080737;28;19908;-88
2021/12/20 12:07:54;;;;;;;;;;;3.90;99.90;;;;;;5098745;28;19908;-89
2021/12/20 12:10:27;;;;;;;;;;;4.00;99.90;;;;;;5081304;28;19957;-90
2021/12/20 12:12:59;;;;;;;;;;;4.10;99.90;;;;;;5081029;28;19909;-90
2021/12/20 12:15:44;;;;;;;;;;;3.90;99.90;;;;;;5079840;28;20363;-90
2021/12/20 12:18:10;;;;;;;;;;;4.00;99.90;;;;;;5080246;28;19908;-90
2021/12/20 12:20:47;;;;;;;;;;;4.40;99.90;;;;;;5080572;28;19915;-90
2021/12/20 12:23:13;;;;;;;;;;;4.90;99.90;;;;;;5083553;28;19916;-90
2021/12/20 12:25:44;;;;;;;;;;;5.20;99.90;;;;;;5097623;28;20293;-90
2021/12/20 12:28:11;;;;;;;;;;;5.10;99.90;;;;;;5079589;28;20337;-90
2021/12/20 12:30:38;;;;;;;;;;;4.80;99.90;;;;;;5079796;28;19915;-90
2021/12/20 12:33:14;;;;;;;;;;;4.80;99.90;;;;;;5098331;28;20007;-90
2021/12/20 12:35:41;;;;;;;;;;;4.80;99.90;;;;;;5097751;28;20285;-89
2021/12/20 12:38:15;;;;;;;;;;;4.70;99.90;;;;;;5080922;28;19909;-90
2021/12/20 12:40:41;;;;;;;;;;;4.30;99.90;;;;;;5081472;28;19961;-90
2021/12/20 12:43:06;;;;;;;;;;;4.00;99.90;;;;;;5081897;28;19913;-89
2021/12/20 12:46:10;;;;;;;;;;;3.70;99.90;;;;;;5080135;28;19908;-90
2021/12/20 12:48:37;;;;;;;;;;;3.50;99.90;;;;;;4998906;28;20296;-90
2021/12/20 12:51:07;;;;;;;;;;;3.20;99.90;;;;;;5000318;28;19917;-90
2021/12/20 12:53:40;;;;;;;;;;;3.10;99.90;;;;;;5039515;28;20002;-90
2021/12/20 12:56:27;;;;;;;;;;;3.10;99.90;;;;;;5079447;28;19919;-90
2021/12/20 12:59:11;;;;;;;;;;;3.10;99.90;;;;;;5079674;28;19908;-91
2021/12/20 13:01:47;;;;;;;;;;;3.30;99.90;;;;;;5081035;28;19908;-91
2021/12/20 13:04:12;;;;;;;;;;;3.40;99.90;;;;;;5081799;28;19908;-91
2021/12/20 13:06:37;;;;;;;;;;;3.60;99.90;;;;;;5082149;28;19954;-89
2021/12/20 13:09:03;;;;;;;;;;;3.80;99.90;;;;;;5080573;28;20274;-91
2021/12/20 13:11:30;;;;;;;;;;;3.80;99.90;;;;;;5097233;28;19957;-91
2021/12/20 13:14:08;;;;;;;;;;;4.20;99.90;;;;;;5079798;28;19908;-91
2021/12/20 13:16:36;;;;;;;;;;;4.50;99.90;;;;;;5079355;28;19916;-89
2021/12/20 13:19:02;;;;;;;;;;;4.60;99.90;;;;;;5077594;28;19908;-89
2021/12/20 13:21:47;;;;;;;;;;;4.60;99.90;;;;;;5096079;28;19915;-89
2021/12/20 13:24:14;;;;;;;;;;;4.50;99.90;;;;;;5095229;28;19915;-89
2021/12/20 13:26:39;;;;;;;;;;;4.60;99.90;;;;;;5076679;28;19967;-89
2021/12/20 13:29:05;;;;;;;;;;;4.50;99.90;;;;;;5076723;28;19908;-90
2021/12/20 13:31:30;;;;;;;;;;;4.40;99.90;;;;;;5076876;28;19919;-89
2021/12/20 13:33:59;;;;;;;;;;;4.40;99.90;;;;;;5094797;28;19962;-89
2021/12/20 13:36:33;;;;;;;;;;;4.40;99.90;;;;;;5076529;28;19912;-90
2021/12/20 13:39:00;;;;;;;;;;;4.50;99.90;;;;;;5094424;28;19912;-89
2021/12/20 13:41:27;;;;;;;;;;;4.60;99.90;;;;;;5076376;28;19909;-89
2021/12/20 13:43:57;;;;;;;;;;;4.40;99.90;;;;;;5076515;28;19991;-89
2021/12/20 13:46:28;;;;;;;;;;;4.30;99.90;;;;;;5076342;28;19916;-89
2021/12/20 13:48:55;;;;;;;;;;;4.30;99.90;;;;;;5076323;28;20309;-89
2021/12/20 13:51:22;;;;;;;;;;;4.40;99.90;;;;;;5076169;28;19954;-89
2021/12/20 13:53:48;;;;;;;;;;;4.50;99.90;;;;;;5076234;28;19915;-89
2021/12/20 13:56:16;;;;;;;;;;;4.60;99.90;;;;;;5075797;28;19916;-89
2021/12/20 13:58:45;;;;;;;;;;;4.60;99.90;;;;;;5076276;28;19942;-89
2021/12/20 14:01:11;;;;;;;;;;;4.40;99.90;;;;;;5076035;28;19934;-89
2021/12/20 14:03:40;;;;;;;;;;;4.30;99.90;;;;;;5076252;28;19908;-89
2021/12/20 14:06:06;;;;;;;;;;;4.20;99.90;;;;;;5076256;28;19923;-89
2021/12/20 14:08:32;;;;;;;;;;;4.10;99.90;;;;;;5094080;28;19912;-88
2021/12/20 14:10:57;;;;;;;;;;;3.90;99.90;;;;;;5076028;28;19915;-90
2021/12/20 14:13:24;;;;;;;;;;;3.80;99.90;;;;;;5075929;28;19962;-88
2021/12/20 14:16:01;;;;;;;;;;;3.80;99.90;;;;;;5075874;28;19912;-90
2021/12/20 14:18:33;;;;;;;;;;;3.70;99.90;;;;;;5075990;28;19998;-89
2021/12/20 14:21:00;;;;;;;;;;;3.60;99.90;;;;;;5076049;28;19912;-89
2021/12/20 14:23:30;;;;;;;;;;;3.70;99.90;;;;;;5094008;28;20259;-88
2021/12/20 14:26:12;;;;;;;;;;;3.60;99.90;;;;;;5093745;28;19908;-89
2021/12/20 14:28:43;;;;;;;;;;;3.60;99.90;;;;;;5093978;28;19966;-89
2021/12/20 14:31:12;;;;;;;;;;;3.60;99.90;;;;;;5075886;28;19919;-89
2021/12/20 14:33:39;;;;;;;;;;;3.50;99.90;;;;;;5086299;28;19892;-91
2021/12/20 14:36:04;;;;;;;;;;;3.50;99.90;;;;;;5081491;28;19921;-90
2021/12/20 14:38:33;;;;;;;;;;;3.60;99.90;;;;;;5076243;28;19958;-91
2021/12/20 14:40:59;;;;;;;;;;;3.50;99.90;;;;;;5075596;28;19924;-90
2021/12/20 14:43:29;;;;;;;;;;;3.50;99.90;;;;;;5075324;28;19955;-90